createdAt,value
2022-10-11T00:01:42.393Z,8.00
2022-10-11T00:04:45.648Z,7.50
2022-10-11T00:07:48.896Z,7.43
2022-10-11T00:10:59.803Z,7.43
2022-10-11T00:14:03.023Z,7.73
2022-10-11T00:17:08.784Z,6.73
2022-10-11T00:20:13.423Z,6.50
2022-10-11T00:23:16.998Z,6.80
2022-10-11T00:26:20.326Z,7.30
2022-10-11T00:29:23.599Z,7.20
2022-10-11T00:32:28.705Z,7.43
2022-10-11T00:35:31.967Z,6.97
2022-10-11T00:38:35.306Z,7.17
2022-10-11T00:41:38.543Z,7.63
2022-10-11T00:44:44.481Z,7.70
2022-10-11T00:47:49.112Z,7.60
2022-10-11T00:50:52.389Z,7.40
2022-10-11T00:53:56.049Z,8.10
2022-10-11T00:57:04.670Z,7.83
2022-10-11T01:00:10.580Z,8.73
2022-10-11T01:03:15.761Z,9.00
2022-10-11T01:06:19.119Z,9.63
2022-10-11T01:09:23.615Z,10.00
2022-10-11T01:12:30.724Z,10.00
2022-10-11T01:15:39.364Z,9.97
2022-10-11T01:18:50.984Z,10.50
2022-10-11T01:22:02.157Z,10.80
2022-10-11T01:25:17.924Z,10.57
2022-10-11T01:28:36.507Z,10.43
2022-10-11T01:31:49.264Z,10.37
2022-10-11T01:34:59.761Z,11.00
2022-10-11T01:38:08.629Z,10.20
2022-10-11T01:41:17.708Z,10.53
2022-10-11T01:44:21.902Z,10.97
2022-10-11T01:47:27.615Z,10.73
2022-10-11T01:50:44.419Z,10.17
2022-10-11T01:54:15.667Z,10.03
2022-10-11T01:57:53.314Z,10.53
2022-10-11T02:01:03.273Z,9.47
2022-10-11T02:04:18.671Z,10.00
2022-10-11T02:07:26.592Z,10.13
2022-10-11T02:10:34.266Z,10.17
2022-10-11T02:13:41.661Z,9.43
2022-10-11T02:16:48.408Z,10.13
2022-10-11T02:19:56.974Z,9.97
2022-10-11T02:23:04.795Z,10.17
2022-10-11T02:26:09.858Z,10.33
2022-10-11T02:29:17.063Z,9.90
2022-10-11T02:32:22.047Z,9.43
2022-10-11T02:35:30.880Z,9.30
2022-10-11T02:38:39.313Z,8.50
2022-10-11T02:41:43.963Z,8.67
2022-10-11T02:44:53.566Z,9.50
2022-10-11T02:47:57.844Z,8.23
2022-10-11T02:51:04.107Z,8.70
2022-10-11T02:54:07.609Z,9.23
2022-10-11T02:57:10.750Z,8.20
2022-10-11T03:00:15.625Z,8.70
2022-10-11T03:03:18.834Z,7.67
2022-10-11T03:06:23.451Z,9.10
2022-10-11T03:09:26.975Z,8.10
2022-10-11T03:12:30.127Z,7.67
2022-10-11T03:15:33.396Z,8.27
2022-10-11T03:18:36.749Z,7.80
2022-10-11T03:21:41.344Z,7.60
2022-10-11T03:24:44.609Z,7.30
2022-10-11T03:27:47.787Z,7.50
2022-10-11T03:30:51.348Z,8.43
2022-10-11T03:33:54.630Z,7.67
2022-10-11T03:36:59.242Z,7.37
2022-10-11T03:40:03.344Z,7.73
2022-10-11T03:43:06.558Z,7.60
2022-10-11T03:46:09.831Z,7.30
2022-10-11T03:49:13.043Z,7.40
2022-10-11T03:52:17.647Z,7.87
2022-10-11T03:55:20.827Z,8.43
2022-10-11T03:58:25.170Z,8.77
2022-10-11T04:01:28.448Z,7.70
2022-10-11T04:04:31.791Z,7.80
2022-10-11T04:07:36.501Z,7.87
2022-10-11T04:10:40.133Z,8.53
2022-10-11T04:13:43.386Z,7.80
2022-10-11T04:16:46.554Z,8.40
2022-10-11T04:19:49.830Z,7.73
2022-10-11T04:22:54.398Z,8.03
2022-10-11T04:25:57.566Z,7.67
2022-10-11T04:29:00.785Z,8.00
2022-10-11T04:32:04.110Z,7.80
2022-10-11T04:35:08.038Z,8.27
2022-10-11T04:38:12.632Z,7.53
2022-10-11T04:41:16.687Z,8.77
2022-10-11T04:44:19.906Z,7.97
2022-10-11T04:47:23.063Z,7.60
2022-10-11T04:50:26.275Z,8.03
2022-10-11T04:53:35.191Z,7.53
2022-10-11T04:56:38.307Z,7.60
2022-10-11T04:59:44.487Z,8.20
2022-10-11T05:02:49.933Z,7.70
2022-10-11T05:05:54.327Z,8.13
2022-10-11T05:08:58.933Z,8.10
2022-10-11T05:12:02.133Z,8.50
2022-10-11T05:15:06.375Z,8.30
2022-10-11T05:18:09.635Z,8.70
2022-10-11T05:21:18.076Z,8.67
2022-10-11T05:24:22.891Z,9.20
2022-10-11T05:27:26.141Z,9.17
2022-10-11T05:30:29.358Z,8.90
2022-10-11T05:33:33.007Z,8.20
2022-10-11T05:36:36.179Z,8.73
2022-10-11T05:39:40.734Z,7.60
2022-10-11T05:42:43.963Z,7.50
2022-10-11T05:45:47.553Z,7.60
2022-10-11T05:48:50.809Z,7.43
2022-10-11T05:51:54.032Z,7.23
2022-10-11T05:54:58.688Z,7.20
2022-10-11T05:58:01.926Z,8.83
2022-10-11T06:01:05.117Z,6.53
2022-10-11T06:04:08.473Z,6.80
2022-10-11T06:07:11.746Z,6.27
2022-10-11T06:10:16.395Z,6.10
2022-10-11T06:13:19.663Z,6.40
2022-10-11T06:16:22.887Z,8.03
2022-10-11T06:19:26.191Z,6.63
2022-10-11T06:22:29.456Z,6.53
2022-10-11T06:25:35.950Z,7.13
2022-10-11T06:28:39.486Z,6.73
2022-10-11T06:31:42.775Z,6.50
2022-10-11T06:34:45.991Z,7.40
2022-10-11T06:37:49.194Z,7.13
2022-10-11T06:40:54.118Z,7.10
2022-10-11T06:43:58.073Z,7.63
2022-10-11T06:47:01.304Z,6.73
2022-10-11T06:50:06.298Z,7.43
2022-10-11T06:53:09.773Z,7.27
2022-10-11T06:56:14.488Z,7.20
2022-10-11T06:59:17.678Z,7.07
2022-10-11T07:02:20.970Z,7.77
2022-10-11T07:05:24.237Z,6.50
2022-10-11T07:08:27.439Z,6.93
2022-10-11T07:11:32.183Z,7.80
2022-10-11T07:14:35.410Z,7.40
2022-10-11T07:17:38.711Z,7.90
2022-10-11T07:20:41.947Z,8.70
2022-10-11T07:23:45.178Z,8.70
2022-10-11T07:26:49.742Z,8.27
2022-10-11T07:29:52.970Z,9.13
2022-10-11T07:32:56.231Z,9.20
2022-10-11T07:35:59.988Z,9.03
2022-10-11T07:39:06.140Z,8.30
2022-10-11T07:42:11.050Z,8.47
2022-10-11T07:45:14.389Z,8.50
2022-10-11T07:48:17.631Z,7.60
2022-10-11T07:51:22.925Z,7.50
2022-10-11T07:54:26.411Z,7.63
2022-10-11T07:57:31.123Z,6.83
2022-10-11T08:00:34.386Z,6.43
2022-10-11T08:03:38.474Z,6.10
2022-10-11T08:06:42.474Z,6.47
2022-10-11T08:09:45.694Z,5.57
2022-10-11T08:12:50.308Z,5.37
2022-10-11T08:15:53.893Z,5.20
2022-10-11T08:18:57.430Z,5.57
2022-10-11T08:22:00.705Z,5.67
2022-10-11T08:25:03.967Z,5.10
2022-10-11T08:28:09.843Z,5.57
2022-10-11T08:31:14.973Z,6.60
2022-10-11T08:34:18.326Z,5.97
2022-10-11T08:37:21.595Z,5.47
2022-10-11T08:40:26.282Z,5.33
2022-10-11T08:43:47.324Z,5.83
2022-10-11T08:46:59.525Z,5.40
2022-10-11T08:50:05.393Z,5.07
2022-10-11T08:53:17.512Z,6.57
2022-10-11T08:56:22.305Z,5.97
2022-10-11T08:59:34.065Z,6.43
2022-10-11T09:03:06.302Z,6.23
2022-10-11T09:06:16.010Z,6.53
2022-10-11T09:09:45.108Z,7.13
2022-10-11T09:12:56.927Z,7.03
2022-10-11T09:16:11.136Z,5.87
2022-10-11T09:19:38.679Z,6.93
2022-10-11T09:22:51.475Z,7.13
2022-10-11T09:25:59.815Z,7.57
2022-10-11T09:29:12.923Z,7.13
2022-10-11T09:32:21.059Z,6.97
2022-10-11T09:35:24.689Z,7.17
2022-10-11T09:38:40.534Z,7.90
2022-10-11T09:41:50.540Z,8.50
2022-10-11T09:44:55.090Z,8.57
2022-10-11T09:48:28.713Z,9.00
2022-10-11T09:51:32.479Z,9.93
2022-10-11T09:54:40.075Z,10.30
2022-10-11T09:57:43.429Z,10.43
2022-10-11T10:01:00.212Z,10.53
2022-10-11T10:04:09.716Z,9.63
2022-10-11T10:07:13.896Z,9.87
2022-10-11T10:10:29.767Z,10.83
2022-10-11T10:13:43.379Z,10.37
2022-10-11T10:16:46.673Z,10.70
2022-10-11T10:19:54.647Z,11.50
2022-10-11T10:22:58.271Z,12.33
2022-10-11T10:26:14.163Z,11.50
2022-10-11T10:29:20.257Z,11.43
2022-10-11T10:32:28.248Z,12.00
2022-10-11T10:35:36.838Z,11.93
2022-10-11T10:38:46.519Z,11.43
2022-10-11T10:41:53.108Z,11.83
2022-10-11T10:44:59.581Z,12.70
2022-10-11T10:48:19.599Z,12.43
2022-10-11T10:51:35.541Z,12.63
2022-10-11T10:54:45.457Z,12.70
2022-10-11T10:58:02.462Z,13.03
2022-10-11T11:01:14.744Z,13.05
2022-10-11T11:04:30.051Z,12.87
2022-10-11T11:07:44.456Z,12.50
2022-10-11T11:10:55.163Z,13.33
2022-10-11T11:14:04.194Z,12.67
2022-10-11T11:17:16.932Z,13.77
2022-10-11T11:20:29.686Z,13.13
2022-10-11T11:23:42.532Z,12.60
2022-10-11T11:26:52.893Z,13.27
2022-10-11T11:30:02.368Z,13.43
2022-10-11T11:33:19.666Z,13.80
2022-10-11T11:36:28.913Z,14.20
2022-10-11T11:39:37.864Z,13.63
2022-10-11T11:42:46.407Z,13.25
2022-10-11T11:45:54.922Z,13.37
2022-10-11T11:49:03.064Z,13.37
2022-10-11T11:52:08.466Z,14.83
2022-10-11T11:55:19.949Z,14.63
2022-10-11T11:58:35.716Z,15.27
2022-10-11T12:01:45.997Z,15.40
2022-10-11T12:04:50.515Z,15.00
2022-10-11T12:07:58.156Z,15.33
2022-10-11T12:11:04.489Z,15.17
2022-10-11T12:14:24.813Z,15.60
2022-10-11T12:17:28.861Z,14.70
2022-10-11T12:20:33.701Z,13.20
2022-10-11T12:23:44.155Z,13.50
2022-10-11T12:26:49.693Z,14.47
2022-10-11T12:29:52.921Z,14.75
2022-10-11T12:33:07.177Z,14.70
2022-10-11T12:36:33.591Z,15.53
2022-10-11T12:39:51.911Z,14.83
2022-10-11T12:43:12.990Z,15.57
2022-10-11T12:46:41.464Z,15.53
2022-10-11T12:50:02.675Z,15.38
2022-10-11T12:53:14.028Z,16.07
2022-10-11T12:56:27.497Z,18.07
2022-10-11T12:59:33.127Z,17.60
2022-10-11T13:02:42.687Z,17.13
2022-10-11T13:05:52.454Z,17.00
2022-10-11T13:09:01.304Z,16.37
2022-10-11T13:12:07.625Z,18.00
2022-10-11T13:15:18.222Z,17.57
2022-10-11T13:18:25.276Z,19.77
2022-10-11T13:21:32.456Z,18.30
2022-10-11T13:24:41.201Z,18.63
2022-10-11T13:27:45.218Z,18.10
2022-10-11T13:30:52.717Z,17.20
2022-10-11T13:33:59.203Z,17.90
2022-10-11T13:37:02.556Z,18.80
2022-10-11T13:40:06.780Z,17.23
2022-10-11T13:43:10.164Z,18.47
2022-10-11T13:46:21.882Z,18.67
2022-10-11T13:49:29.283Z,18.53
2022-10-11T13:52:32.515Z,19.07
2022-10-11T13:55:37.709Z,18.97
2022-10-11T13:58:47.753Z,19.13
2022-10-11T14:01:58.803Z,18.53
2022-10-11T14:05:02.093Z,18.60
2022-10-11T14:08:08.989Z,18.43
2022-10-11T14:11:14.459Z,18.93
2022-10-11T14:14:41.130Z,20.43
2022-10-11T14:17:46.905Z,20.50
2022-10-11T14:20:50.117Z,19.53
2022-10-11T14:23:54.816Z,20.30
2022-10-11T14:26:59.222Z,20.53
2022-10-11T14:33:27.646Z,21.37
2022-10-11T14:36:31.735Z,22.27
2022-10-11T14:39:35.006Z,22.13
2022-10-11T14:42:38.247Z,22.33
2022-10-11T14:45:41.477Z,23.40
2022-10-11T14:49:01.209Z,22.60
2022-10-11T14:52:06.939Z,23.60
2022-10-11T14:55:10.127Z,23.53
2022-10-11T14:58:15.891Z,24.73
2022-10-11T15:01:19.315Z,23.80
2022-10-11T15:04:26.419Z,22.40
2022-10-11T15:07:29.615Z,22.57
2022-10-11T15:10:36.714Z,22.93
2022-10-11T15:13:39.914Z,22.93
2022-10-11T15:16:43.533Z,24.07
2022-10-11T15:19:48.166Z,22.57
2022-10-11T15:22:51.849Z,23.33
2022-10-11T15:25:55.068Z,24.67
2022-10-11T15:28:59.006Z,25.47
2022-10-11T15:32:02.155Z,26.43
2022-10-11T15:35:07.665Z,28.60
2022-10-11T15:38:17.449Z,28.23
2022-10-11T15:41:21.469Z,29.30
2022-10-11T15:44:24.782Z,28.10
2022-10-11T15:47:28.018Z,29.57
2022-10-11T15:50:37.539Z,29.43
2022-10-11T15:53:40.908Z,28.40
2022-10-11T15:56:44.348Z,27.60
2022-10-11T15:59:47.536Z,28.80
2022-10-11T16:02:52.578Z,27.27
2022-10-11T16:06:01.143Z,28.13
2022-10-11T16:09:08.066Z,28.57
2022-10-11T16:12:11.252Z,28.37
2022-10-11T16:15:14.756Z,27.97
2022-10-11T16:18:21.066Z,28.20
2022-10-11T16:21:25.653Z,28.37
2022-10-11T16:24:28.893Z,29.80
2022-10-11T16:27:32.236Z,28.97
2022-10-11T16:30:36.074Z,28.90
2022-10-11T16:33:46.290Z,27.93
2022-10-11T16:36:53.549Z,30.57
2022-10-11T16:40:00.002Z,27.93
2022-10-11T16:43:07.881Z,28.37
2022-10-11T16:46:38.915Z,29.67
2022-10-11T16:49:44.558Z,30.87
2022-10-11T16:52:51.346Z,30.80
2022-10-11T16:55:57.706Z,30.30
2022-10-11T16:59:01.288Z,29.73
2022-10-11T17:02:15.751Z,30.83
2022-10-11T17:05:19.537Z,29.27
2022-10-11T17:08:27.902Z,31.03
2022-10-11T17:11:36.772Z,31.87
2022-10-11T17:14:51.621Z,32.23
2022-10-11T17:18:00.636Z,32.40
2022-10-11T17:21:05.544Z,32.50
2022-10-11T17:24:10.473Z,31.43
2022-10-11T17:27:14.137Z,31.23
2022-10-11T17:30:17.607Z,33.10
2022-10-11T17:33:23.261Z,31.63
2022-10-11T17:36:30.670Z,31.03
2022-10-11T17:39:35.384Z,30.67
2022-10-11T17:42:38.625Z,32.23
2022-10-11T17:45:41.869Z,35.73
2022-10-11T17:48:45.633Z,31.90
2022-10-11T17:51:48.783Z,32.33
2022-10-11T17:54:53.451Z,33.40
2022-10-11T17:57:56.906Z,31.90
2022-10-11T18:01:04.055Z,31.40
2022-10-11T18:04:10.208Z,31.63
2022-10-11T18:07:13.416Z,34.80
2022-10-11T18:10:18.149Z,31.77
2022-10-11T18:13:21.299Z,33.97
2022-10-11T18:16:28.500Z,33.03
2022-10-11T18:19:32.102Z,32.03
2022-10-11T18:22:35.306Z,32.27
2022-10-11T18:25:39.926Z,32.57
2022-10-11T18:28:44.142Z,30.93
2022-10-11T18:31:47.380Z,31.27
2022-10-11T18:34:51.298Z,31.83
2022-10-11T18:38:00.030Z,31.90
2022-10-11T18:41:09.909Z,31.97
2022-10-11T18:44:15.284Z,31.40
2022-10-11T18:47:18.776Z,31.50
2022-10-11T18:50:22.027Z,33.53
2022-10-11T18:53:25.367Z,34.63
2022-10-11T18:56:32.407Z,33.17
2022-10-11T18:59:35.808Z,32.43
2022-10-11T19:02:38.988Z,31.80
2022-10-11T19:05:42.233Z,31.27
2022-10-11T19:08:45.577Z,32.00
2022-10-11T19:11:50.741Z,33.13
2022-10-11T19:14:54.837Z,31.03
2022-10-11T19:17:58.074Z,30.20
2022-10-11T19:21:05.601Z,31.87
2022-10-11T19:24:09.762Z,30.27
2022-10-11T19:27:14.386Z,32.60
2022-10-11T19:30:17.766Z,33.43
2022-10-11T19:33:20.928Z,31.20
2022-10-11T19:36:24.251Z,30.80
2022-10-11T19:39:27.494Z,31.40
2022-10-11T19:42:32.306Z,29.93
2022-10-11T19:45:36.565Z,29.83
2022-10-11T19:48:40.759Z,31.03
2022-10-11T19:51:43.974Z,29.93
2022-10-11T19:54:47.208Z,30.70
2022-10-11T19:57:51.894Z,30.00
2022-10-11T20:01:01.446Z,29.90
2022-10-11T20:04:06.791Z,30.77
2022-10-11T20:07:10.040Z,28.93
2022-10-11T20:10:13.307Z,31.30
2022-10-11T20:13:17.912Z,29.57
2022-10-11T20:16:23.109Z,31.67
2022-10-11T20:19:30.637Z,30.47
2022-10-11T20:22:35.354Z,30.43
2022-10-11T20:25:38.706Z,31.57
2022-10-11T20:28:43.986Z,31.60
2022-10-11T20:31:47.450Z,32.73
2022-10-11T20:34:50.619Z,31.73
2022-10-11T20:37:54.432Z,31.47
2022-10-11T20:40:58.421Z,32.57
2022-10-11T20:44:04.009Z,31.63
2022-10-11T20:47:07.159Z,31.30
2022-10-11T20:50:10.808Z,30.17
2022-10-11T20:53:16.319Z,31.90
2022-10-11T20:56:22.466Z,31.60
2022-10-11T20:59:27.497Z,30.33
2022-10-11T21:02:31.010Z,30.73
2022-10-11T21:05:34.494Z,30.33
2022-10-11T21:08:38.976Z,32.03
2022-10-11T21:11:42.111Z,30.03
2022-10-11T21:14:46.758Z,29.77
2022-10-11T21:17:50.583Z,30.27
2022-10-11T21:20:53.837Z,30.20
2022-10-11T21:23:58.069Z,29.00
2022-10-11T21:27:01.296Z,30.63
2022-10-11T21:30:06.477Z,31.63
2022-10-11T21:33:09.673Z,29.97
2022-10-11T21:36:14.486Z,30.03
2022-10-11T21:39:17.729Z,31.37
2022-10-11T21:42:22.262Z,29.87
2022-10-11T21:45:28.446Z,30.50
2022-10-11T21:48:31.674Z,31.57
2022-10-11T21:51:35.721Z,29.93
2022-10-11T21:54:39.106Z,30.70
2022-10-11T21:57:42.924Z,30.87
2022-10-11T22:00:49.199Z,30.07
2022-10-11T22:03:54.268Z,29.20
2022-10-11T22:06:57.403Z,30.93
2022-10-11T22:10:00.637Z,31.13
2022-10-11T22:13:04.169Z,32.13
2022-10-11T22:16:11.164Z,31.07
2022-10-11T22:19:14.359Z,32.30
2022-10-11T22:22:17.588Z,31.30
2022-10-11T22:25:21.105Z,30.63
2022-10-11T22:28:24.415Z,31.73
2022-10-11T22:31:29.577Z,33.07
2022-10-11T22:34:33.364Z,32.87
2022-10-11T22:37:36.937Z,32.70
2022-10-11T22:40:41.115Z,32.27
2022-10-11T22:43:44.289Z,31.37
2022-10-11T22:46:48.923Z,32.30
2022-10-11T22:49:52.459Z,30.57
2022-10-11T22:52:55.640Z,32.40
2022-10-11T22:55:58.928Z,31.17
2022-10-11T22:59:02.180Z,30.53
2022-10-11T23:02:06.784Z,30.10
2022-10-11T23:05:10.237Z,30.00
2022-10-11T23:08:13.491Z,38.20
2022-10-11T23:11:16.698Z,43.73
2022-10-11T23:14:19.923Z,46.43
2022-10-11T23:17:24.547Z,48.20
2022-10-11T23:20:27.861Z,48.53
2022-10-11T23:23:31.099Z,43.90
2022-10-11T23:26:34.237Z,40.93
2022-10-11T23:29:40.152Z,39.23
2022-10-11T23:32:44.779Z,37.77
2022-10-11T23:35:47.970Z,36.63
2022-10-11T23:38:53.634Z,35.90
2022-10-11T23:41:57.000Z,34.50
2022-10-11T23:45:00.244Z,34.93
2022-10-11T23:48:05.131Z,35.57
2022-10-11T23:51:08.905Z,33.73
2022-10-11T23:54:12.268Z,34.73
2022-10-11T23:57:16.754Z,35.57
